sensor_id;sensor_type;location;lat;lon;timestamp;temperature;humidity
12438;DHT22;6283;51.330;12.374;2024-03-08T00:00:08;3.10;1.00
12438;DHT22;6283;51.330;12.374;2024-03-08T00:02:45;2.90;99.90
12438;DHT22;6283;51.330;12.374;2024-03-08T00:05:11;2.70;99.90
12438;DHT22;6283;51.330;12.374;2024-03-08T00:07:38;3.00;99.90
12438;DHT22;6283;51.330;12.374;2024-03-08T00:10:05;3.00;99.90
12438;DHT22;6283;51.330;12.374;2024-03-08T00:12:31;2.70;1.00
12438;DHT22;6283;51.330;12.374;2024-03-08T00:14:56;2.80;1.00
12438;DHT22;6283;51.330;12.374;2024-03-08T00:17:22;2.80;99.90
12438;DHT22;6283;51.330;12.374;2024-03-08T00:19:50;2.70;99.90
12438;DHT22;6283;51.330;12.374;2024-03-08T00:22:17;2.80;1.00
12438;DHT22;6283;51.330;12.374;2024-03-08T00:24:42;2.70;1.00
12438;DHT22;6283;51.330;12.374;2024-03-08T00:27:08;2.80;1.00
12438;DHT22;6283;51.330;12.374;2024-03-08T00:29:34;2.50;99.90
12438;DHT22;6283;51.330;12.374;2024-03-08T00:32:00;2.60;99.90
12438;DHT22;6283;51.330;12.374;2024-03-08T00:34:26;2.50;99.90
12438;DHT22;6283;51.330;12.374;2024-03-08T00:36:52;2.70;99.90
12438;DHT22;6283;51.330;12.374;2024-03-08T00:39:18;2.80;1.00
12438;DHT22;6283;51.330;12.374;2024-03-08T00:41:47;2.40;99.90
12438;DHT22;6283;51.330;12.374;2024-03-08T00:44:13;2.40;99.90
12438;DHT22;6283;51.330;12.374;2024-03-08T00:46:38;2.60;1.00
12438;DHT22;6283;51.330;12.374;2024-03-08T00:49:04;2.50;1.00
12438;DHT22;6283;51.330;12.374;2024-03-08T00:51:29;2.50;99.90
12438;DHT22;6283;51.330;12.374;2024-03-08T00:53:55;2.40;1.00
12438;DHT22;6283;51.330;12.374;2024-03-08T00:56:20;2.60;99.90
12438;DHT22;6283;51.330;12.374;2024-03-08T00:58:46;2.40;1.00
12438;DHT22;6283;51.330;12.374;2024-03-08T01:01:13;2.60;1.00
12438;DHT22;6283;51.330;12.374;2024-03-08T01:03:43;2.40;1.00
12438;DHT22;6283;51.330;12.374;2024-03-08T01:06:08;2.30;1.00
12438;DHT22;6283;51.330;12.374;2024-03-08T01:08:34;2.40;1.00
12438;DHT22;6283;51.330;12.374;2024-03-08T01:11:00;2.40;1.00
12438;DHT22;6283;51.330;12.374;2024-03-08T01:13:25;2.50;1.00
12438;DHT22;6283;51.330;12.374;2024-03-08T01:15:51;2.30;1.00
12438;DHT22;6283;51.330;12.374;2024-03-08T01:18:17;2.50;1.00
12438;DHT22;6283;51.330;12.374;2024-03-08T01:20:42;2.50;1.00
12438;DHT22;6283;51.330;12.374;2024-03-08T01:23:08;2.30;1.00
12438;DHT22;6283;51.330;12.374;2024-03-08T01:25:34;2.20;1.00
12438;DHT22;6283;51.330;12.374;2024-03-08T01:28:00;2.60;1.00
12438;DHT22;6283;51.330;12.374;2024-03-08T01:30:25;2.30;1.00
12438;DHT22;6283;51.330;12.374;2024-03-08T01:32:51;2.30;1.00
12438;DHT22;6283;51.330;12.374;2024-03-08T01:35:16;2.30;1.00
12438;DHT22;6283;51.330;12.374;2024-03-08T01:37:43;2.20;1.00
12438;DHT22;6283;51.330;12.374;2024-03-08T01:40:09;2.20;1.00
12438;DHT22;6283;51.330;12.374;2024-03-08T01:42:35;2.10;1.00
12438;DHT22;6283;51.330;12.374;2024-03-08T01:45:05;2.40;99.90
12438;DHT22;6283;51.330;12.374;2024-03-08T01:47:32;2.00;1.00
12438;DHT22;6283;51.330;12.374;2024-03-08T01:49:59;2.10;1.00
12438;DHT22;6283;51.330;12.374;2024-03-08T01:52:28;2.30;1.00
12438;DHT22;6283;51.330;12.374;2024-03-08T01:54:54;2.20;1.00
12438;DHT22;6283;51.330;12.374;2024-03-08T01:57:20;2.20;1.00
12438;DHT22;6283;51.330;12.374;2024-03-08T01:59:46;2.10;1.00
12438;DHT22;6283;51.330;12.374;2024-03-08T02:02:14;2.20;1.00
12438;DHT22;6283;51.330;12.374;2024-03-08T02:04:41;2.20;1.00
12438;DHT22;6283;51.330;12.374;2024-03-08T02:07:07;2.20;1.00
12438;DHT22;6283;51.330;12.374;2024-03-08T02:09:32;2.30;1.00
12438;DHT22;6283;51.330;12.374;2024-03-08T02:11:58;2.10;1.00
12438;DHT22;6283;51.330;12.374;2024-03-08T02:14:23;2.30;1.00
12438;DHT22;6283;51.330;12.374;2024-03-08T02:16:49;2.20;1.00
12438;DHT22;6283;51.330;12.374;2024-03-08T02:19:16;2.10;1.00
12438;DHT22;6283;51.330;12.374;2024-03-08T02:21:42;2.20;1.00
12438;DHT22;6283;51.330;12.374;2024-03-08T02:24:09;2.30;1.00
12438;DHT22;6283;51.330;12.374;2024-03-08T02:26:35;2.10;1.00
12438;DHT22;6283;51.330;12.374;2024-03-08T02:29:01;2.10;1.00
12438;DHT22;6283;51.330;12.374;2024-03-08T02:31:27;2.00;1.00
12438;DHT22;6283;51.330;12.374;2024-03-08T02:33:52;2.20;1.00
12438;DHT22;6283;51.330;12.374;2024-03-08T02:36:18;2.10;1.00
12438;DHT22;6283;51.330;12.374;2024-03-08T02:38:44;2.20;1.00
12438;DHT22;6283;51.330;12.374;2024-03-08T02:41:09;2.20;1.00
12438;DHT22;6283;51.330;12.374;2024-03-08T02:43:36;2.00;1.00
12438;DHT22;6283;51.330;12.374;2024-03-08T02:46:01;2.00;1.00
12438;DHT22;6283;51.330;12.374;2024-03-08T02:48:27;1.90;1.00
12438;DHT22;6283;51.330;12.374;2024-03-08T02:50:53;2.00;1.00
12438;DHT22;6283;51.330;12.374;2024-03-08T02:53:19;1.90;1.00
12438;DHT22;6283;51.330;12.374;2024-03-08T02:55:44;2.00;1.00
12438;DHT22;6283;51.330;12.374;2024-03-08T02:58:10;2.00;1.00
12438;DHT22;6283;51.330;12.374;2024-03-08T03:00:36;1.90;1.00
12438;DHT22;6283;51.330;12.374;2024-03-08T03:03:03;2.00;1.00
12438;DHT22;6283;51.330;12.374;2024-03-08T03:05:29;1.70;1.00
12438;DHT22;6283;51.330;12.374;2024-03-08T03:07:55;2.00;1.00
12438;DHT22;6283;51.330;12.374;2024-03-08T03:10:21;1.90;1.00
12438;DHT22;6283;51.330;12.374;2024-03-08T03:12:47;1.80;1.00
12438;DHT22;6283;51.330;12.374;2024-03-08T03:15:16;2.00;1.00
12438;DHT22;6283;51.330;12.374;2024-03-08T03:17:49;1.80;1.00
12438;DHT22;6283;51.330;12.374;2024-03-08T03:20:18;1.80;1.00
12438;DHT22;6283;51.330;12.374;2024-03-08T03:22:52;1.90;1.00
12438;DHT22;6283;51.330;12.374;2024-03-08T03:25:21;1.80;1.00
12438;DHT22;6283;51.330;12.374;2024-03-08T03:27:51;2.00;1.00
12438;DHT22;6283;51.330;12.374;2024-03-08T03:30:17;1.90;1.00
12438;DHT22;6283;51.330;12.374;2024-03-08T03:32:49;1.90;1.00
12438;DHT22;6283;51.330;12.374;2024-03-08T03:35:20;1.60;1.00
12438;DHT22;6283;51.330;12.374;2024-03-08T03:37:48;2.00;1.00
12438;DHT22;6283;51.330;12.374;2024-03-08T03:40:30;1.90;1.00
12438;DHT22;6283;51.330;12.374;2024-03-08T03:42:56;1.50;1.00
12438;DHT22;6283;51.330;12.374;2024-03-08T03:45:23;1.90;1.00
12438;DHT22;6283;51.330;12.374;2024-03-08T03:47:48;1.90;1.00
12438;DHT22;6283;51.330;12.374;2024-03-08T03:50:14;1.90;1.00
12438;DHT22;6283;51.330;12.374;2024-03-08T03:52:40;1.60;1.00
12438;DHT22;6283;51.330;12.374;2024-03-08T03:55:08;1.70;1.00
12438;DHT22;6283;51.330;12.374;2024-03-08T03:57:33;1.70;1.00
12438;DHT22;6283;51.330;12.374;2024-03-08T03:59:59;1.80;1.00
12438;DHT22;6283;51.330;12.374;2024-03-08T04:02:25;1.80;1.00
12438;DHT22;6283;51.330;12.374;2024-03-08T04:04:54;1.70;1.00
12438;DHT22;6283;51.330;12.374;2024-03-08T04:07:20;1.60;1.00
12438;DHT22;6283;51.330;12.374;2024-03-08T04:09:46;1.60;1.00
12438;DHT22;6283;51.330;12.374;2024-03-08T04:12:12;1.60;1.00
12438;DHT22;6283;51.330;12.374;2024-03-08T04:14:40;1.60;1.00
12438;DHT22;6283;51.330;12.374;2024-03-08T04:17:06;1.80;1.00
12438;DHT22;6283;51.330;12.374;2024-03-08T04:19:34;1.50;1.00
12438;DHT22;6283;51.330;12.374;2024-03-08T04:22:00;1.80;1.00
12438;DHT22;6283;51.330;12.374;2024-03-08T04:24:26;1.70;1.00
12438;DHT22;6283;51.330;12.374;2024-03-08T04:26:52;1.70;1.00
12438;DHT22;6283;51.330;12.374;2024-03-08T04:29:18;1.60;1.00
12438;DHT22;6283;51.330;12.374;2024-03-08T04:31:44;1.60;1.00
12438;DHT22;6283;51.330;12.374;2024-03-08T04:34:10;1.40;1.00
12438;DHT22;6283;51.330;12.374;2024-03-08T04:36:36;1.70;1.00
12438;DHT22;6283;51.330;12.374;2024-03-08T04:39:02;1.60;1.00
12438;DHT22;6283;51.330;12.374;2024-03-08T04:41:28;1.60;1.00
12438;DHT22;6283;51.330;12.374;2024-03-08T04:43:55;1.50;1.00
12438;DHT22;6283;51.330;12.374;2024-03-08T04:46:23;1.70;1.00
12438;DHT22;6283;51.330;12.374;2024-03-08T04:48:49;1.60;1.00
12438;DHT22;6283;51.330;12.374;2024-03-08T04:51:14;1.40;1.00
12438;DHT22;6283;51.330;12.374;2024-03-08T04:53:41;1.70;1.00
12438;DHT22;6283;51.330;12.374;2024-03-08T04:56:07;1.50;1.00
12438;DHT22;6283;51.330;12.374;2024-03-08T04:58:36;1.70;1.00
12438;DHT22;6283;51.330;12.374;2024-03-08T05:01:02;1.50;1.00
12438;DHT22;6283;51.330;12.374;2024-03-08T05:03:28;1.60;1.00
12438;DHT22;6283;51.330;12.374;2024-03-08T05:05:54;1.60;1.00
12438;DHT22;6283;51.330;12.374;2024-03-08T05:08:19;1.30;1.00
12438;DHT22;6283;51.330;12.374;2024-03-08T05:10:45;1.50;1.00
12438;DHT22;6283;51.330;12.374;2024-03-08T05:13:11;1.70;1.00
12438;DHT22;6283;51.330;12.374;2024-03-08T05:15:38;1.60;1.00
12438;DHT22;6283;51.330;12.374;2024-03-08T05:18:04;1.50;1.00
12438;DHT22;6283;51.330;12.374;2024-03-08T05:20:30;1.50;1.00
12438;DHT22;6283;51.330;12.374;2024-03-08T05:22:56;1.60;1.00
12438;DHT22;6283;51.330;12.374;2024-03-08T05:25:25;1.30;1.00
12438;DHT22;6283;51.330;12.374;2024-03-08T05:27:52;1.30;1.00
12438;DHT22;6283;51.330;12.374;2024-03-08T05:30:17;1.50;1.00
12438;DHT22;6283;51.330;12.374;2024-03-08T05:32:43;1.30;1.00
12438;DHT22;6283;51.330;12.374;2024-03-08T05:35:10;1.50;1.00
12438;DHT22;6283;51.330;12.374;2024-03-08T05:37:40;1.60;1.00
12438;DHT22;6283;51.330;12.374;2024-03-08T05:40:06;1.40;1.00
12438;DHT22;6283;51.330;12.374;2024-03-08T05:42:35;1.50;1.00
12438;DHT22;6283;51.330;12.374;2024-03-08T05:45:02;1.40;1.00
12438;DHT22;6283;51.330;12.374;2024-03-08T05:47:28;1.40;1.00
12438;DHT22;6283;51.330;12.374;2024-03-08T05:49:54;1.40;1.00
12438;DHT22;6283;51.330;12.374;2024-03-08T05:52:19;1.40;1.00
12438;DHT22;6283;51.330;12.374;2024-03-08T05:54:45;1.50;1.00
12438;DHT22;6283;51.330;12.374;2024-03-08T05:57:12;1.50;1.00
12438;DHT22;6283;51.330;12.374;2024-03-08T05:59:39;1.50;1.00
12438;DHT22;6283;51.330;12.374;2024-03-08T06:02:05;1.30;1.00
12438;DHT22;6283;51.330;12.374;2024-03-08T06:04:31;1.60;1.00
12438;DHT22;6283;51.330;12.374;2024-03-08T06:06:59;1.20;1.00
12438;DHT22;6283;51.330;12.374;2024-03-08T06:09:25;1.50;1.00
12438;DHT22;6283;51.330;12.374;2024-03-08T06:11:54;1.60;1.00
12438;DHT22;6283;51.330;12.374;2024-03-08T06:14:20;1.30;1.00
12438;DHT22;6283;51.330;12.374;2024-03-08T06:16:46;1.60;1.00
12438;DHT22;6283;51.330;12.374;2024-03-08T06:19:12;1.60;1.00
12438;DHT22;6283;51.330;12.374;2024-03-08T06:21:38;1.70;1.00
12438;DHT22;6283;51.330;12.374;2024-03-08T06:24:04;1.50;1.00
12438;DHT22;6283;51.330;12.374;2024-03-08T06:26:29;1.70;1.00
12438;DHT22;6283;51.330;12.374;2024-03-08T06:28:55;1.40;1.00
12438;DHT22;6283;51.330;12.374;2024-03-08T06:31:21;1.60;1.00
12438;DHT22;6283;51.330;12.374;2024-03-08T06:33:47;1.70;1.00
12438;DHT22;6283;51.330;12.374;2024-03-08T06:36:18;1.70;1.00
12438;DHT22;6283;51.330;12.374;2024-03-08T06:38:45;1.50;1.00
12438;DHT22;6283;51.330;12.374;2024-03-08T06:41:11;1.50;1.00
12438;DHT22;6283;51.330;12.374;2024-03-08T06:43:44;1.50;1.00
12438;DHT22;6283;51.330;12.374;2024-03-08T06:46:10;1.50;1.00
12438;DHT22;6283;51.330;12.374;2024-03-08T06:48:38;1.90;1.00
12438;DHT22;6283;51.330;12.374;2024-03-08T06:51:04;1.80;1.00
12438;DHT22;6283;51.330;12.374;2024-03-08T06:53:30;1.90;1.00
12438;DHT22;6283;51.330;12.374;2024-03-08T06:55:57;1.80;1.00
12438;DHT22;6283;51.330;12.374;2024-03-08T06:58:23;2.00;1.00
12438;DHT22;6283;51.330;12.374;2024-03-08T07:00:49;2.10;1.00
12438;DHT22;6283;51.330;12.374;2024-03-08T07:03:18;2.20;1.00
12438;DHT22;6283;51.330;12.374;2024-03-08T07:05:43;2.10;1.00
12438;DHT22;6283;51.330;12.374;2024-03-08T07:08:09;2.20;1.00
12438;DHT22;6283;51.330;12.374;2024-03-08T07:10:35;2.20;1.00
12438;DHT22;6283;51.330;12.374;2024-03-08T07:13:02;2.30;1.00
12438;DHT22;6283;51.330;12.374;2024-03-08T07:15:28;2.20;1.00
12438;DHT22;6283;51.330;12.374;2024-03-08T07:17:54;2.30;1.00
12438;DHT22;6283;51.330;12.374;2024-03-08T07:20:20;2.30;1.00
12438;DHT22;6283;51.330;12.374;2024-03-08T07:22:47;2.40;1.00
12438;DHT22;6283;51.330;12.374;2024-03-08T07:25:14;2.30;1.00
12438;DHT22;6283;51.330;12.374;2024-03-08T07:27:47;2.50;1.00
12438;DHT22;6283;51.330;12.374;2024-03-08T07:30:12;2.70;1.00
12438;DHT22;6283;51.330;12.374;2024-03-08T07:32:39;2.70;1.00
12438;DHT22;6283;51.330;12.374;2024-03-08T07:35:05;2.70;1.00
12438;DHT22;6283;51.330;12.374;2024-03-08T07:37:31;2.80;1.00
12438;DHT22;6283;51.330;12.374;2024-03-08T07:39:57;2.60;1.00
12438;DHT22;6283;51.330;12.374;2024-03-08T07:42:23;2.70;1.00
12438;DHT22;6283;51.330;12.374;2024-03-08T07:44:49;2.90;1.00
12438;DHT22;6283;51.330;12.374;2024-03-08T07:47:15;2.90;1.00
12438;DHT22;6283;51.330;12.374;2024-03-08T07:49:42;3.20;1.00
12438;DHT22;6283;51.330;12.374;2024-03-08T07:52:09;3.20;1.00
12438;DHT22;6283;51.330;12.374;2024-03-08T07:54:39;3.30;1.00
12438;DHT22;6283;51.330;12.374;2024-03-08T07:57:05;3.40;1.00
12438;DHT22;6283;51.330;12.374;2024-03-08T07:59:32;3.20;1.00
12438;DHT22;6283;51.330;12.374;2024-03-08T08:01:58;3.40;1.00
12438;DHT22;6283;51.330;12.374;2024-03-08T08:04:24;3.60;1.00
12438;DHT22;6283;51.330;12.374;2024-03-08T08:06:50;3.70;1.00
12438;DHT22;6283;51.330;12.374;2024-03-08T08:09:16;3.70;1.00
12438;DHT22;6283;51.330;12.374;2024-03-08T08:11:54;3.90;1.00
12438;DHT22;6283;51.330;12.374;2024-03-08T08:14:20;3.90;1.00
12438;DHT22;6283;51.330;12.374;2024-03-08T08:16:47;3.90;1.00
12438;DHT22;6283;51.330;12.374;2024-03-08T08:19:14;4.00;1.00
12438;DHT22;6283;51.330;12.374;2024-03-08T08:21:41;4.10;1.00
12438;DHT22;6283;51.330;12.374;2024-03-08T08:24:06;4.10;1.00
12438;DHT22;6283;51.330;12.374;2024-03-08T08:26:32;4.00;1.00
12438;DHT22;6283;51.330;12.374;2024-03-08T08:28:59;4.40;1.00
12438;DHT22;6283;51.330;12.374;2024-03-08T08:31:25;4.30;1.00
12438;DHT22;6283;51.330;12.374;2024-03-08T08:33:51;4.50;1.00
12438;DHT22;6283;51.330;12.374;2024-03-08T08:36:23;4.50;1.00
12438;DHT22;6283;51.330;12.374;2024-03-08T08:38:49;4.60;1.00
12438;DHT22;6283;51.330;12.374;2024-03-08T08:41:15;4.90;1.00
12438;DHT22;6283;51.330;12.374;2024-03-08T08:43:42;5.10;1.00
12438;DHT22;6283;51.330;12.374;2024-03-08T08:46:10;5.20;1.00
12438;DHT22;6283;51.330;12.374;2024-03-08T08:48:39;5.00;1.00
12438;DHT22;6283;51.330;12.374;2024-03-08T08:51:10;5.20;1.00
12438;DHT22;6283;51.330;12.374;2024-03-08T08:53:39;5.10;1.00
12438;DHT22;6283;51.330;12.374;2024-03-08T08:56:13;5.30;1.00
12438;DHT22;6283;51.330;12.374;2024-03-08T08:58:39;5.70;1.00
12438;DHT22;6283;51.330;12.374;2024-03-08T09:01:06;5.90;1.00
12438;DHT22;6283;51.330;12.374;2024-03-08T09:03:33;5.80;1.00
12438;DHT22;6283;51.330;12.374;2024-03-08T09:06:00;6.10;1.00
12438;DHT22;6283;51.330;12.374;2024-03-08T09:08:28;6.30;1.00
12438;DHT22;6283;51.330;12.374;2024-03-08T09:10:54;6.10;1.00
12438;DHT22;6283;51.330;12.374;2024-03-08T09:13:19;6.20;1.00
12438;DHT22;6283;51.330;12.374;2024-03-08T09:15:45;6.50;1.00
12438;DHT22;6283;51.330;12.374;2024-03-08T09:18:11;6.40;99.90
12438;DHT22;6283;51.330;12.374;2024-03-08T09:20:36;6.60;1.00
12438;DHT22;6283;51.330;12.374;2024-03-08T09:23:03;6.60;1.00
12438;DHT22;6283;51.330;12.374;2024-03-08T09:25:29;6.60;1.00
12438;DHT22;6283;51.330;12.374;2024-03-08T09:27:55;6.60;1.00
12438;DHT22;6283;51.330;12.374;2024-03-08T09:30:21;6.70;1.00
12438;DHT22;6283;51.330;12.374;2024-03-08T09:32:47;6.80;1.00
12438;DHT22;6283;51.330;12.374;2024-03-08T09:35:13;6.80;1.00
12438;DHT22;6283;51.330;12.374;2024-03-08T09:37:39;6.80;1.00
12438;DHT22;6283;51.330;12.374;2024-03-08T09:40:05;6.70;1.00
12438;DHT22;6283;51.330;12.374;2024-03-08T09:42:35;7.00;99.90
12438;DHT22;6283;51.330;12.374;2024-03-08T09:45:12;6.80;1.00
12438;DHT22;6283;51.330;12.374;2024-03-08T09:47:42;7.20;99.90
12438;DHT22;6283;51.330;12.374;2024-03-08T09:50:08;7.00;1.00
12438;DHT22;6283;51.330;12.374;2024-03-08T09:52:37;7.00;99.90
12438;DHT22;6283;51.330;12.374;2024-03-08T09:55:05;7.20;1.00
12438;DHT22;6283;51.330;12.374;2024-03-08T09:57:36;7.00;1.00
12438;DHT22;6283;51.330;12.374;2024-03-08T10:00:03;7.30;1.00
12438;DHT22;6283;51.330;12.374;2024-03-08T10:02:37;7.30;99.90
12438;DHT22;6283;51.330;12.374;2024-03-08T10:05:03;7.30;99.90
12438;DHT22;6283;51.330;12.374;2024-03-08T10:07:28;7.40;1.00
12438;DHT22;6283;51.330;12.374;2024-03-08T10:09:54;7.20;1.00
12438;DHT22;6283;51.330;12.374;2024-03-08T10:12:20;7.60;1.00
12438;DHT22;6283;51.330;12.374;2024-03-08T10:14:46;7.40;1.00
12438;DHT22;6283;51.330;12.374;2024-03-08T10:17:12;7.60;1.00
12438;DHT22;6283;51.330;12.374;2024-03-08T10:19:38;7.50;1.00
12438;DHT22;6283;51.330;12.374;2024-03-08T10:22:04;7.90;1.00
12438;DHT22;6283;51.330;12.374;2024-03-08T10:24:31;7.80;1.00
12438;DHT22;6283;51.330;12.374;2024-03-08T10:27:00;8.00;1.00
12438;DHT22;6283;51.330;12.374;2024-03-08T10:29:27;7.90;1.00
12438;DHT22;6283;51.330;12.374;2024-03-08T10:31:53;8.10;99.90
12438;DHT22;6283;51.330;12.374;2024-03-08T10:34:21;8.30;99.90
12438;DHT22;6283;51.330;12.374;2024-03-08T10:36:50;8.30;99.90
12438;DHT22;6283;51.330;12.374;2024-03-08T10:39:24;8.10;99.90
12438;DHT22;6283;51.330;12.374;2024-03-08T10:42:03;8.30;99.90
12438;DHT22;6283;51.330;12.374;2024-03-08T10:47:15;8.60;99.90
12438;DHT22;6283;51.330;12.374;2024-03-08T10:49:55;8.60;1.00
12438;DHT22;6283;51.330;12.374;2024-03-08T10:52:23;8.50;99.90
12438;DHT22;6283;51.330;12.374;2024-03-08T10:54:49;8.60;99.90
12438;DHT22;6283;51.330;12.374;2024-03-08T10:57:18;8.80;99.90
12438;DHT22;6283;51.330;12.374;2024-03-08T10:59:47;8.90;99.90
12438;DHT22;6283;51.330;12.374;2024-03-08T11:02:16;8.70;99.90
12438;DHT22;6283;51.330;12.374;2024-03-08T11:04:50;8.60;99.90
12438;DHT22;6283;51.330;12.374;2024-03-08T11:07:16;8.80;99.90
12438;DHT22;6283;51.330;12.374;2024-03-08T11:09:47;9.00;99.90
12438;DHT22;6283;51.330;12.374;2024-03-08T11:12:29;9.00;99.90
12438;DHT22;6283;51.330;12.374;2024-03-08T11:15:01;9.00;99.90
12438;DHT22;6283;51.330;12.374;2024-03-08T11:19:59;9.30;99.90
12438;DHT22;6283;51.330;12.374;2024-03-08T11:22:32;9.20;1.40
12438;DHT22;6283;51.330;12.374;2024-03-08T11:25:09;8.90;99.90
12438;DHT22;6283;51.330;12.374;2024-03-08T11:27:37;9.20;99.90
12438;DHT22;6283;51.330;12.374;2024-03-08T11:30:05;9.40;99.90
12438;DHT22;6283;51.330;12.374;2024-03-08T11:32:37;9.40;99.90
12438;DHT22;6283;51.330;12.374;2024-03-08T11:35:18;9.70;99.90
12438;DHT22;6283;51.330;12.374;2024-03-08T11:37:44;9.90;99.90
12438;DHT22;6283;51.330;12.374;2024-03-08T11:40:13;9.70;99.90
12438;DHT22;6283;51.330;12.374;2024-03-08T11:42:47;10.00;99.90
12438;DHT22;6283;51.330;12.374;2024-03-08T11:45:14;10.30;99.90
12438;DHT22;6283;51.330;12.374;2024-03-08T11:47:43;10.30;99.90
12438;DHT22;6283;51.330;12.374;2024-03-08T11:50:12;10.60;99.90
12438;DHT22;6283;51.330;12.374;2024-03-08T11:52:38;10.60;99.90
12438;DHT22;6283;51.330;12.374;2024-03-08T11:55:04;10.80;99.90
12438;DHT22;6283;51.330;12.374;2024-03-08T11:57:31;10.70;99.90
12438;DHT22;6283;51.330;12.374;2024-03-08T11:59:58;11.10;99.90
12438;DHT22;6283;51.330;12.374;2024-03-08T12:02:24;11.10;99.90
12438;DHT22;6283;51.330;12.374;2024-03-08T12:05:00;11.50;99.90
12438;DHT22;6283;51.330;12.374;2024-03-08T12:07:31;11.40;99.90
12438;DHT22;6283;51.330;12.374;2024-03-08T12:10:19;11.40;99.90
12438;DHT22;6283;51.330;12.374;2024-03-08T12:12:47;11.90;99.90
12438;DHT22;6283;51.330;12.374;2024-03-08T12:15:15;12.10;99.90
12438;DHT22;6283;51.330;12.374;2024-03-08T12:17:41;12.30;99.90
12438;DHT22;6283;51.330;12.374;2024-03-08T12:20:15;12.50;99.90
12438;DHT22;6283;51.330;12.374;2024-03-08T12:22:43;12.60;99.90
12438;DHT22;6283;51.330;12.374;2024-03-08T12:25:11;12.80;99.90
12438;DHT22;6283;51.330;12.374;2024-03-08T12:27:38;12.70;99.90
12438;DHT22;6283;51.330;12.374;2024-03-08T12:30:25;13.00;99.90
12438;DHT22;6283;51.330;12.374;2024-03-08T12:32:59;13.20;99.90
12438;DHT22;6283;51.330;12.374;2024-03-08T12:35:29;13.70;99.90
12438;DHT22;6283;51.330;12.374;2024-03-08T12:37:56;13.60;99.90
12438;DHT22;6283;51.330;12.374;2024-03-08T12:40:32;14.00;99.90
12438;DHT22;6283;51.330;12.374;2024-03-08T12:43:00;14.00;99.90
12438;DHT22;6283;51.330;12.374;2024-03-08T12:45:27;14.20;99.90
12438;DHT22;6283;51.330;12.374;2024-03-08T12:47:53;14.20;99.90
12438;DHT22;6283;51.330;12.374;2024-03-08T12:50:23;13.90;99.90
12438;DHT22;6283;51.330;12.374;2024-03-08T12:52:50;14.10;99.90
12438;DHT22;6283;51.330;12.374;2024-03-08T12:55:18;14.20;99.90
12438;DHT22;6283;51.330;12.374;2024-03-08T12:57:44;14.20;99.90
12438;DHT22;6283;51.330;12.374;2024-03-08T13:00:10;14.20;99.90
12438;DHT22;6283;51.330;12.374;2024-03-08T13:02:47;14.10;99.90
12438;DHT22;6283;51.330;12.374;2024-03-08T13:05:13;14.10;99.90
12438;DHT22;6283;51.330;12.374;2024-03-08T13:07:40;14.20;99.90
12438;DHT22;6283;51.330;12.374;2024-03-08T13:10:10;14.30;99.90
12438;DHT22;6283;51.330;12.374;2024-03-08T13:12:40;14.30;99.90
12438;DHT22;6283;51.330;12.374;2024-03-08T13:15:07;14.50;99.90
12438;DHT22;6283;51.330;12.374;2024-03-08T13:17:34;14.60;99.90
12438;DHT22;6283;51.330;12.374;2024-03-08T13:19:59;14.70;99.90
12438;DHT22;6283;51.330;12.374;2024-03-08T13:22:25;14.70;99.90
12438;DHT22;6283;51.330;12.374;2024-03-08T13:24:51;14.70;99.90
12438;DHT22;6283;51.330;12.374;2024-03-08T13:27:17;14.60;99.90
12438;DHT22;6283;51.330;12.374;2024-03-08T13:29:48;14.80;99.90
12438;DHT22;6283;51.330;12.374;2024-03-08T13:32:15;14.80;99.90
12438;DHT22;6283;51.330;12.374;2024-03-08T13:34:42;15.00;99.90
12438;DHT22;6283;51.330;12.374;2024-03-08T13:37:10;15.00;99.90
12438;DHT22;6283;51.330;12.374;2024-03-08T13:39:37;14.90;99.90
12438;DHT22;6283;51.330;12.374;2024-03-08T13:42:16;15.00;99.90
12438;DHT22;6283;51.330;12.374;2024-03-08T13:44:48;15.00;99.90
12438;DHT22;6283;51.330;12.374;2024-03-08T13:47:18;15.10;99.90
12438;DHT22;6283;51.330;12.374;2024-03-08T13:49:44;15.00;99.90
12438;DHT22;6283;51.330;12.374;2024-03-08T13:52:10;14.90;99.90
12438;DHT22;6283;51.330;12.374;2024-03-08T13:54:37;15.20;99.90
12438;DHT22;6283;51.330;12.374;2024-03-08T13:57:04;15.40;99.90
12438;DHT22;6283;51.330;12.374;2024-03-08T13:59:30;15.30;99.90
12438;DHT22;6283;51.330;12.374;2024-03-08T14:02:01;15.30;99.90
12438;DHT22;6283;51.330;12.374;2024-03-08T14:04:30;15.40;99.90
12438;DHT22;6283;51.330;12.374;2024-03-08T14:06:56;15.50;99.90
12438;DHT22;6283;51.330;12.374;2024-03-08T14:09:25;15.60;99.90
12438;DHT22;6283;51.330;12.374;2024-03-08T14:11:52;15.60;99.90
12438;DHT22;6283;51.330;12.374;2024-03-08T14:14:21;15.70;99.90
12438;DHT22;6283;51.330;12.374;2024-03-08T14:16:49;15.80;99.90
12438;DHT22;6283;51.330;12.374;2024-03-08T14:19:18;15.90;99.90
12438;DHT22;6283;51.330;12.374;2024-03-08T14:21:44;16.00;99.90
12438;DHT22;6283;51.330;12.374;2024-03-08T14:24:10;16.20;99.90
12438;DHT22;6283;51.330;12.374;2024-03-08T14:26:35;16.30;99.90
12438;DHT22;6283;51.330;12.374;2024-03-08T14:29:04;16.40;99.90
12438;DHT22;6283;51.330;12.374;2024-03-08T14:31:31;16.50;99.90
12438;DHT22;6283;51.330;12.374;2024-03-08T14:33:56;16.60;1.00
12438;DHT22;6283;51.330;12.374;2024-03-08T14:36:24;16.60;99.90
12438;DHT22;6283;51.330;12.374;2024-03-08T14:38:51;16.50;99.90
12438;DHT22;6283;51.330;12.374;2024-03-08T14:41:18;16.40;99.90
12438;DHT22;6283;51.330;12.374;2024-03-08T14:43:43;16.40;99.90
12438;DHT22;6283;51.330;12.374;2024-03-08T14:46:18;16.40;99.90
12438;DHT22;6283;51.330;12.374;2024-03-08T14:48:46;16.40;99.90
12438;DHT22;6283;51.330;12.374;2024-03-08T14:51:13;16.40;99.90
12438;DHT22;6283;51.330;12.374;2024-03-08T14:53:43;16.40;99.90
12438;DHT22;6283;51.330;12.374;2024-03-08T14:56:11;16.30;99.90
12438;DHT22;6283;51.330;12.374;2024-03-08T14:58:46;16.20;99.90
12438;DHT22;6283;51.330;12.374;2024-03-08T15:01:15;16.00;99.90
12438;DHT22;6283;51.330;12.374;2024-03-08T15:03:41;16.00;99.90
12438;DHT22;6283;51.330;12.374;2024-03-08T15:06:10;16.00;99.90
12438;DHT22;6283;51.330;12.374;2024-03-08T15:08:38;16.00;99.90
12438;DHT22;6283;51.330;12.374;2024-03-08T15:11:04;16.00;99.90
12438;DHT22;6283;51.330;12.374;2024-03-08T15:13:34;15.80;99.90
12438;DHT22;6283;51.330;12.374;2024-03-08T15:16:08;15.90;99.90
12438;DHT22;6283;51.330;12.374;2024-03-08T15:18:34;15.90;99.90
12438;DHT22;6283;51.330;12.374;2024-03-08T15:21:04;15.80;99.90
12438;DHT22;6283;51.330;12.374;2024-03-08T15:23:36;15.70;99.90
12438;DHT22;6283;51.330;12.374;2024-03-08T15:26:02;15.70;99.90
12438;DHT22;6283;51.330;12.374;2024-03-08T15:28:29;15.80;99.90
12438;DHT22;6283;51.330;12.374;2024-03-08T15:31:03;15.60;99.90
12438;DHT22;6283;51.330;12.374;2024-03-08T15:33:36;15.60;99.90
12438;DHT22;6283;51.330;12.374;2024-03-08T15:36:09;15.50;99.90
12438;DHT22;6283;51.330;12.374;2024-03-08T15:38:37;15.30;99.90
12438;DHT22;6283;51.330;12.374;2024-03-08T15:41:05;15.40;99.90
12438;DHT22;6283;51.330;12.374;2024-03-08T15:43:38;15.30;99.90
12438;DHT22;6283;51.330;12.374;2024-03-08T15:46:05;15.40;99.90
12438;DHT22;6283;51.330;12.374;2024-03-08T15:48:35;15.40;99.90
12438;DHT22;6283;51.330;12.374;2024-03-08T15:51:01;15.30;99.90
12438;DHT22;6283;51.330;12.374;2024-03-08T15:53:35;15.30;99.90
12438;DHT22;6283;51.330;12.374;2024-03-08T15:56:05;15.30;99.90
12438;DHT22;6283;51.330;12.374;2024-03-08T15:58:31;15.20;99.90